createdAt,value
2023-02-13T00:01:21.708Z,60.11
2023-02-13T00:04:23.176Z,60.19
2023-02-13T00:07:24.618Z,59.92
2023-02-13T00:10:26.298Z,59.99
2023-02-13T00:13:27.880Z,60.10
2023-02-13T00:16:29.331Z,60.03
2023-02-13T00:19:30.921Z,59.98
2023-02-13T00:22:36.886Z,60.03
2023-02-13T00:25:38.862Z,59.96
2023-02-13T00:28:40.698Z,60.13
2023-02-13T00:31:42.361Z,59.91
2023-02-13T00:34:44.114Z,59.88
2023-02-13T00:37:45.656Z,60.09
2023-02-13T00:40:47.116Z,59.70
2023-02-13T00:43:49.065Z,59.95
2023-02-13T00:46:50.641Z,60.01
2023-02-13T00:49:52.187Z,59.91
2023-02-13T00:52:53.614Z,59.94
2023-02-13T00:55:55.211Z,59.88
2023-02-13T00:58:56.657Z,60.09
2023-02-13T01:01:59.917Z,59.91
2023-02-13T01:05:01.500Z,60.12
2023-02-13T01:08:03.161Z,60.09
2023-02-13T01:11:04.804Z,60.08
2023-02-13T01:14:06.799Z,60.05
2023-02-13T01:17:08.300Z,60.04
2023-02-13T01:20:12.319Z,60.08
2023-02-13T01:23:13.744Z,60.00
2023-02-13T01:26:19.832Z,60.08
2023-02-13T01:29:21.269Z,59.95
2023-02-13T01:32:22.820Z,60.18
2023-02-13T01:35:24.259Z,59.97
2023-02-13T01:38:25.866Z,59.95
2023-02-13T01:41:31.442Z,60.11
2023-02-13T01:44:50.920Z,59.97
2023-02-13T01:47:56.552Z,60.00
2023-02-13T01:51:01.027Z,59.85
2023-02-13T01:54:23.219Z,59.88
2023-02-13T01:57:29.271Z,59.91
2023-02-13T02:00:31.302Z,59.83
2023-02-13T02:03:39.332Z,59.89
2023-02-13T02:06:49.082Z,60.03
2023-02-13T02:10:05.179Z,60.04
2023-02-13T02:13:09.769Z,60.19
2023-02-13T02:16:13.270Z,60.05
2023-02-13T02:19:50.154Z,59.96
2023-02-13T02:22:51.796Z,59.98
2023-02-13T02:26:30.994Z,60.08
2023-02-13T02:29:55.735Z,60.22
2023-02-13T02:32:57.195Z,60.09
2023-02-13T02:36:17.082Z,60.11
2023-02-13T02:39:37.005Z,60.06
2023-02-13T02:42:41.581Z,60.18
2023-02-13T02:45:58.306Z,60.16
2023-02-13T02:49:31.775Z,60.12
2023-02-13T02:52:33.207Z,60.17
2023-02-13T02:55:41.748Z,60.07
2023-02-13T02:59:30.386Z,60.16
2023-02-13T03:02:53.448Z,60.17
2023-02-13T03:06:11.435Z,60.11
2023-02-13T03:09:37.538Z,60.18
2023-02-13T03:13:07.986Z,60.20
2023-02-13T03:16:38.776Z,60.17
2023-02-13T03:20:05.002Z,60.21
2023-02-13T03:23:14.754Z,60.29
2023-02-13T03:26:45.535Z,60.21
2023-02-13T03:30:09.260Z,60.38
2023-02-13T03:33:59.583Z,60.71
2023-02-13T03:37:25.887Z,60.98
2023-02-13T03:40:37.924Z,60.98
2023-02-13T03:43:47.797Z,61.02
2023-02-13T03:46:53.018Z,61.08
2023-02-13T03:50:06.490Z,61.05
2023-02-13T03:53:11.367Z,61.18
2023-02-13T03:56:32.946Z,61.29
2023-02-13T03:59:36.885Z,61.39
2023-02-13T04:02:51.270Z,61.47
2023-02-13T04:06:10.341Z,61.53
2023-02-13T04:09:12.076Z,61.83
2023-02-13T04:12:19.590Z,61.66
2023-02-13T04:15:29.214Z,61.75
2023-02-13T04:18:33.254Z,61.61
2023-02-13T04:21:40.245Z,61.63
2023-02-13T04:24:41.845Z,61.74
2023-02-13T04:27:43.395Z,61.70
2023-02-13T04:30:44.968Z,61.72
2023-02-13T04:33:46.521Z,61.83
2023-02-13T04:36:48.081Z,61.90
2023-02-13T04:39:49.601Z,61.95
2023-02-13T04:42:51.096Z,62.02
2023-02-13T04:45:52.670Z,62.14
2023-02-13T04:48:54.200Z,62.05
2023-02-13T04:51:55.702Z,61.95
2023-02-13T04:54:57.239Z,61.88
2023-02-13T04:57:59.005Z,61.87
2023-02-13T05:01:00.641Z,61.90
2023-02-13T05:04:02.347Z,61.95
2023-02-13T05:07:03.871Z,61.93
2023-02-13T05:10:05.925Z,61.88
2023-02-13T05:13:07.794Z,61.86
2023-02-13T05:16:09.435Z,61.91
2023-02-13T05:19:11.231Z,61.87
2023-02-13T05:22:31.130Z,61.98
2023-02-13T05:25:34.029Z,61.88
2023-02-13T05:28:54.198Z,61.96
2023-02-13T05:31:58.257Z,61.79
2023-02-13T05:34:59.859Z,61.92
2023-02-13T05:38:01.328Z,61.56
2023-02-13T05:41:03.037Z,61.73
2023-02-13T05:44:05.174Z,61.72
2023-02-13T05:47:06.654Z,61.92
2023-02-13T05:50:08.446Z,61.72
2023-02-13T05:53:09.952Z,61.78
2023-02-13T05:56:11.437Z,61.88
2023-02-13T05:59:13.293Z,61.89
2023-02-13T06:02:14.928Z,61.88
2023-02-13T06:05:16.624Z,61.77
2023-02-13T06:08:18.088Z,62.21
2023-02-13T06:11:19.997Z,61.90
2023-02-13T06:14:21.684Z,61.86
2023-02-13T06:17:23.175Z,61.82
2023-02-13T06:20:24.800Z,61.85
2023-02-13T06:23:26.281Z,61.46
2023-02-13T06:26:27.740Z,61.95
2023-02-13T06:29:31.015Z,61.87
2023-02-13T06:32:32.480Z,61.74
2023-02-13T06:35:33.992Z,61.61
2023-02-13T06:38:35.438Z,61.71
2023-02-13T06:41:37.058Z,61.40
2023-02-13T06:44:38.561Z,61.42
2023-02-13T06:47:44.855Z,61.26
2023-02-13T06:50:46.353Z,61.08
2023-02-13T06:53:47.841Z,60.77
2023-02-13T06:56:49.314Z,60.97
2023-02-13T06:59:50.847Z,60.83
2023-02-13T07:02:52.441Z,60.80
2023-02-13T07:05:53.973Z,61.24
2023-02-13T07:08:55.963Z,60.56
2023-02-13T07:11:57.596Z,60.67
2023-02-13T07:14:59.222Z,60.58
2023-02-13T07:18:01.238Z,60.43
2023-02-13T07:21:02.732Z,60.51
2023-02-13T07:24:07.757Z,60.37
2023-02-13T07:27:09.639Z,60.42
2023-02-13T07:30:12.016Z,60.34
2023-02-13T07:33:13.771Z,60.31
2023-02-13T07:36:15.408Z,60.38
2023-02-13T07:39:16.876Z,59.97
2023-02-13T07:42:18.462Z,60.35
2023-02-13T07:45:19.950Z,60.36
2023-02-13T07:48:27.202Z,60.23
2023-02-13T07:51:29.115Z,60.65
2023-02-13T07:54:31.115Z,60.39
2023-02-13T07:57:33.456Z,60.44
2023-02-13T08:00:35.047Z,60.40
2023-02-13T08:03:37.000Z,60.21
2023-02-13T08:06:40.373Z,60.44
2023-02-13T08:10:02.583Z,60.17
2023-02-13T08:13:05.400Z,60.38
2023-02-13T08:16:07.113Z,60.31
2023-02-13T08:19:08.625Z,60.58
2023-02-13T08:22:10.096Z,60.41
2023-02-13T08:25:11.576Z,60.34
2023-02-13T08:28:13.392Z,60.45
2023-02-13T08:31:15.052Z,60.41
2023-02-13T08:34:16.866Z,60.32
2023-02-13T08:37:18.640Z,60.40
2023-02-13T08:40:20.269Z,60.01
2023-02-13T08:43:21.759Z,60.30
2023-02-13T08:46:23.359Z,60.30
2023-02-13T08:49:25.026Z,60.43
2023-02-13T08:52:26.531Z,60.24
2023-02-13T08:55:28.745Z,60.22
2023-02-13T08:58:30.648Z,60.12
2023-02-13T09:01:32.315Z,60.17
2023-02-13T09:04:34.586Z,60.09
2023-02-13T09:07:36.160Z,60.17
2023-02-13T09:10:38.372Z,59.87
2023-02-13T09:13:39.893Z,60.11
2023-02-13T09:16:41.490Z,60.18
2023-02-13T09:19:42.952Z,60.15
2023-02-13T09:22:44.739Z,60.25
2023-02-13T09:25:46.192Z,60.00
2023-02-13T09:28:47.768Z,60.18
2023-02-13T09:31:49.646Z,60.09
2023-02-13T09:34:51.232Z,60.12
2023-02-13T09:37:52.925Z,60.11
2023-02-13T09:40:59.758Z,60.07
2023-02-13T09:44:06.334Z,60.12
2023-02-13T09:47:28.281Z,60.00
2023-02-13T09:50:33.385Z,60.07
2023-02-13T09:53:36.269Z,60.06
2023-02-13T09:56:41.726Z,60.09
2023-02-13T09:59:43.158Z,59.97
2023-02-13T10:02:56.776Z,60.17
2023-02-13T10:06:17.047Z,60.11
2023-02-13T10:09:53.983Z,59.98
2023-02-13T10:13:04.099Z,60.06
2023-02-13T10:16:34.943Z,60.08
2023-02-13T10:19:57.153Z,60.02
2023-02-13T10:23:08.206Z,59.88
2023-02-13T10:26:27.069Z,60.16
2023-02-13T10:30:01.068Z,60.06
2023-02-13T10:33:24.886Z,60.05
2023-02-13T10:36:40.861Z,60.14
2023-02-13T10:39:46.237Z,59.79
2023-02-13T10:42:59.110Z,60.02
2023-02-13T10:46:00.967Z,60.13
2023-02-13T10:49:11.649Z,60.08
2023-02-13T10:52:23.566Z,60.21
2023-02-13T10:55:37.284Z,60.26
2023-02-13T10:59:06.837Z,60.33
2023-02-13T11:02:20.367Z,60.45
2023-02-13T11:05:31.276Z,60.73
2023-02-13T11:08:45.909Z,60.91
2023-02-13T11:11:47.537Z,61.03
2023-02-13T11:15:03.438Z,60.94
2023-02-13T11:18:20.818Z,61.03
2023-02-13T11:21:34.313Z,61.05
2023-02-13T11:24:36.964Z,61.12
2023-02-13T11:27:40.351Z,61.29
2023-02-13T11:30:41.839Z,61.35
2023-02-13T11:33:43.343Z,61.29
2023-02-13T11:36:44.847Z,61.39
2023-02-13T11:39:51.112Z,61.35
2023-02-13T11:42:52.784Z,61.45
2023-02-13T11:46:10.622Z,61.38
2023-02-13T11:49:25.100Z,61.48
2023-02-13T11:52:30.228Z,61.28
2023-02-13T11:55:31.673Z,61.44
2023-02-13T11:58:33.580Z,61.31
2023-02-13T12:01:35.110Z,61.17
2023-02-13T12:04:36.669Z,61.20
2023-02-13T12:07:38.471Z,61.12
2023-02-13T12:10:39.966Z,61.07
2023-02-13T12:13:42.441Z,61.18
2023-02-13T12:16:47.307Z,61.07
2023-02-13T12:19:50.934Z,61.00
2023-02-13T12:23:18.597Z,61.03
2023-02-13T12:26:28.819Z,61.04
2023-02-13T12:29:30.300Z,61.04
2023-02-13T12:32:55.795Z,61.24
2023-02-13T12:35:57.265Z,61.12
2023-02-13T12:39:17.759Z,61.21
2023-02-13T12:42:37.389Z,61.19
2023-02-13T12:45:59.051Z,61.28
2023-02-13T12:49:37.953Z,61.34
2023-02-13T12:53:11.666Z,61.36
2023-02-13T12:56:26.179Z,61.43
2023-02-13T12:59:39.737Z,61.36
2023-02-13T13:02:47.324Z,61.46
2023-02-13T13:06:11.741Z,61.44
2023-02-13T13:09:41.471Z,61.35
2023-02-13T13:13:06.100Z,61.34
2023-02-13T13:16:51.595Z,61.39
2023-02-13T13:20:08.851Z,61.43
2023-02-13T13:23:20.842Z,61.29
2023-02-13T13:26:32.124Z,61.40
2023-02-13T13:29:44.508Z,61.31
2023-02-13T13:32:51.860Z,61.34
2023-02-13T13:36:03.751Z,61.25
2023-02-13T13:39:25.357Z,61.37
2023-02-13T13:42:48.087Z,61.40
2023-02-13T13:45:58.387Z,61.45
2023-02-13T13:49:18.252Z,61.50
2023-02-13T13:52:27.218Z,61.41
2023-02-13T13:56:05.857Z,61.39
2023-02-13T13:59:17.297Z,61.41
2023-02-13T14:02:18.865Z,61.46
2023-02-13T14:05:32.705Z,61.47
2023-02-13T14:08:37.200Z,61.49
2023-02-13T14:11:41.799Z,61.55
2023-02-13T14:14:44.851Z,61.61
2023-02-13T14:17:46.307Z,61.64
2023-02-13T14:20:50.690Z,61.58
2023-02-13T14:23:53.273Z,61.61
2023-02-13T14:27:05.627Z,61.69
2023-02-13T14:30:31.124Z,61.67
2023-02-13T14:33:33.214Z,61.61
2023-02-13T14:36:38.295Z,61.71
2023-02-13T14:39:42.124Z,61.73
2023-02-13T14:42:47.960Z,61.61
2023-02-13T14:45:56.387Z,61.67
2023-02-13T14:49:02.712Z,61.68
2023-02-13T14:52:07.434Z,61.74
2023-02-13T14:55:17.398Z,61.74
2023-02-13T14:58:33.463Z,61.71
2023-02-13T15:01:42.479Z,61.96
2023-02-13T15:04:49.125Z,61.77
2023-02-13T15:07:52.386Z,61.69
2023-02-13T15:10:56.005Z,61.64
2023-02-13T15:13:57.532Z,61.89
2023-02-13T15:17:17.677Z,61.90
2023-02-13T15:20:25.387Z,61.73
2023-02-13T15:23:30.050Z,61.69
2023-02-13T15:26:31.533Z,61.72
2023-02-13T15:29:47.885Z,61.64
2023-02-13T15:33:01.432Z,61.82
2023-02-13T15:36:05.996Z,61.62
2023-02-13T15:39:10.156Z,61.58
2023-02-13T15:42:12.932Z,61.59
2023-02-13T15:45:17.724Z,61.38
2023-02-13T15:48:20.470Z,61.40
2023-02-13T15:51:24.708Z,61.25
2023-02-13T15:54:29.513Z,61.21
2023-02-13T15:57:31.534Z,61.16
2023-02-13T16:00:39.243Z,61.10
2023-02-13T16:03:42.943Z,61.13
2023-02-13T16:06:47.090Z,61.14
2023-02-13T16:09:48.630Z,61.20
2023-02-13T16:12:50.158Z,61.15
2023-02-13T16:15:52.522Z,60.59
2023-02-13T16:18:54.319Z,58.00
2023-02-13T16:21:58.377Z,58.07
2023-02-13T16:25:05.661Z,58.51
2023-02-13T16:28:10.120Z,58.99
2023-02-13T16:31:15.713Z,59.06
2023-02-13T16:34:27.126Z,59.05
2023-02-13T16:37:31.868Z,59.07
2023-02-13T16:40:35.800Z,59.19
2023-02-13T16:43:48.724Z,59.32
2023-02-13T16:47:23.982Z,59.33
2023-02-13T16:50:25.497Z,59.22
2023-02-13T16:53:27.044Z,59.32
2023-02-13T16:56:36.201Z,59.29
2023-02-13T16:59:48.516Z,59.32
2023-02-13T17:02:50.756Z,59.32
2023-02-13T17:05:52.239Z,59.37
2023-02-13T17:08:53.912Z,59.05
2023-02-13T17:11:55.396Z,59.08
2023-02-13T17:14:59.348Z,59.07
2023-02-13T17:18:00.918Z,59.08
2023-02-13T17:21:02.554Z,59.24
2023-02-13T17:24:05.416Z,59.03
2023-02-13T17:27:06.862Z,58.99
2023-02-13T17:30:13.549Z,59.19
2023-02-13T17:33:17.933Z,59.07
2023-02-13T17:36:19.450Z,58.99
2023-02-13T17:39:20.909Z,59.12
2023-02-13T17:42:25.659Z,59.17
2023-02-13T17:45:33.022Z,59.45
2023-02-13T17:48:34.613Z,59.42
2023-02-13T17:51:39.394Z,59.59
2023-02-13T17:54:40.847Z,59.70
2023-02-13T17:57:42.349Z,59.71
2023-02-13T18:00:43.915Z,59.82
2023-02-13T18:03:45.442Z,60.03
2023-02-13T18:06:50.662Z,60.23
2023-02-13T18:09:52.358Z,60.47
2023-02-13T18:12:56.589Z,60.64
2023-02-13T18:15:58.119Z,60.77
2023-02-13T18:18:59.642Z,61.28
2023-02-13T18:22:01.262Z,61.46
2023-02-13T18:25:02.835Z,61.56
2023-02-13T18:28:04.372Z,61.60
2023-02-13T18:31:09.744Z,61.84
2023-02-13T18:34:11.310Z,62.01
2023-02-13T18:37:13.747Z,61.97
2023-02-13T18:40:17.068Z,61.95
2023-02-13T18:43:18.588Z,61.73
2023-02-13T18:46:20.134Z,61.49
2023-02-13T18:49:21.633Z,61.93
2023-02-13T18:52:23.114Z,61.67
2023-02-13T18:55:24.613Z,61.79
2023-02-13T18:58:26.215Z,61.56
2023-02-13T19:01:27.699Z,61.61
2023-02-13T19:04:29.248Z,61.37
2023-02-13T19:07:30.809Z,61.53
2023-02-13T19:10:32.295Z,61.08
2023-02-13T19:13:34.191Z,61.45
2023-02-13T19:16:36.074Z,61.34
2023-02-13T19:19:37.625Z,61.49
2023-02-13T19:22:39.200Z,61.59
2023-02-13T19:25:40.728Z,61.61
2023-02-13T19:28:42.633Z,61.70
2023-02-13T19:31:44.245Z,61.83
2023-02-13T19:34:46.811Z,62.00
2023-02-13T19:37:48.289Z,62.03
2023-02-13T19:40:49.780Z,62.14
2023-02-13T19:43:53.346Z,62.15
2023-02-13T19:46:54.888Z,62.21
2023-02-13T19:49:56.374Z,62.39
2023-02-13T19:52:57.880Z,62.62
2023-02-13T19:56:00.010Z,62.51
2023-02-13T19:59:01.504Z,62.36
2023-02-13T20:02:03.025Z,62.28
2023-02-13T20:05:06.980Z,62.54
2023-02-13T20:08:08.470Z,62.73
2023-02-13T20:11:11.544Z,62.64
2023-02-13T20:14:14.954Z,62.56
2023-02-13T20:17:16.661Z,62.63
2023-02-13T20:20:18.524Z,62.57
2023-02-13T20:23:20.962Z,62.49
2023-02-13T20:26:22.610Z,62.56
2023-02-13T20:29:24.258Z,62.51
2023-02-13T20:32:25.857Z,62.54
2023-02-13T20:35:27.343Z,62.71
2023-02-13T20:38:28.828Z,62.27
2023-02-13T20:41:32.979Z,62.51
2023-02-13T20:44:34.463Z,62.51
2023-02-13T20:47:35.966Z,62.37
2023-02-13T20:50:37.457Z,62.36
2023-02-13T20:53:39.752Z,62.35
2023-02-13T20:56:41.229Z,62.39
2023-02-13T20:59:44.755Z,62.41
2023-02-13T21:02:46.257Z,62.17
2023-02-13T21:05:47.775Z,62.39
2023-02-13T21:08:50.454Z,62.17
2023-02-13T21:11:51.951Z,62.35
2023-02-13T21:14:53.641Z,62.50
2023-02-13T21:17:55.281Z,62.41
2023-02-13T21:20:57.422Z,62.35
2023-02-13T21:24:02.073Z,62.34
2023-02-13T21:27:03.719Z,62.24
2023-02-13T21:30:05.935Z,62.19
2023-02-13T21:33:07.417Z,62.16
2023-02-13T21:36:10.365Z,62.03
2023-02-13T21:39:12.747Z,61.90
2023-02-13T21:42:15.462Z,61.96
2023-02-13T21:45:17.027Z,61.87
2023-02-13T21:48:18.523Z,61.81
2023-02-13T21:51:20.703Z,61.87
2023-02-13T21:54:22.291Z,61.85
2023-02-13T21:57:23.787Z,61.82
2023-02-13T22:00:25.286Z,61.84
2023-02-13T22:03:26.906Z,61.82
2023-02-13T22:06:30.638Z,61.82
2023-02-13T22:09:32.199Z,61.69
2023-02-13T22:12:33.642Z,62.01
2023-02-13T22:15:35.182Z,61.77
2023-02-13T22:18:42.413Z,61.59
2023-02-13T22:21:44.585Z,61.67
2023-02-13T22:24:46.047Z,61.42
2023-02-13T22:27:48.230Z,61.59
2023-02-13T22:30:49.788Z,61.57
2023-02-13T22:34:03.003Z,61.57
2023-02-13T22:37:06.361Z,61.57
2023-02-13T22:40:08.161Z,61.66
2023-02-13T22:43:09.909Z,61.60
2023-02-13T22:46:13.971Z,61.50
2023-02-13T22:49:15.533Z,61.20
2023-02-13T22:52:17.036Z,61.47
2023-02-13T22:55:18.658Z,61.57
2023-02-13T22:58:20.138Z,61.66
2023-02-13T23:01:24.783Z,61.59
2023-02-13T23:04:26.265Z,61.75
2023-02-13T23:07:27.842Z,61.61
2023-02-13T23:10:29.335Z,61.61
2023-02-13T23:13:31.079Z,61.62
2023-02-13T23:16:51.204Z,61.49
2023-02-13T23:19:52.797Z,61.68
2023-02-13T23:22:54.610Z,61.71
2023-02-13T23:25:56.059Z,61.66
2023-02-13T23:28:57.544Z,61.65
2023-02-13T23:31:59.160Z,61.63
2023-02-13T23:35:00.744Z,61.68
2023-02-13T23:38:02.211Z,61.71
2023-02-13T23:41:09.739Z,61.74
2023-02-13T23:44:11.277Z,61.66
2023-02-13T23:47:12.793Z,61.81
2023-02-13T23:50:14.319Z,61.77
2023-02-13T23:53:15.765Z,62.14
2023-02-13T23:56:17.276Z,61.88
2023-02-13T23:59:20.344Z,61.96
